Time;durP1;ratioP1;P1;durP2;ratioP2;P2;SDS_P1;SDS_P2;PMS_P1;PMS_P2;Temp;Humidity;BMP_temperature;BMP_pressure;BME280_temperature;BME280_humidity;BME280_pressure;Samples;Min_cycle;Max_cycle;Signal;HPM_P1;HPM_P2
2022/12/25 00:00:32;;;;;;;36.07;23.50;;;12.20;99.90;;;;;;911376;152;27308;-80
2022/12/25 00:02:58;;;;;;;52.15;31.85;;;12.30;99.90;;;;;;915028;154;27377;-80
2022/12/25 00:05:25;;;;;;;22.20;15.10;;;12.30;99.90;;;;;;915080;154;27370;-80
2022/12/25 00:07:51;;;;;;;13.90;9.13;;;12.30;99.90;;;;;;916507;154;27387;-79
2022/12/25 00:10:18;;;;;;;15.25;11.10;;;12.30;99.90;;;;;;916032;154;27418;-80
2022/12/25 00:12:45;;;;;;;15.78;9.53;;;12.40;99.90;;;;;;926952;151;27349;-80
2022/12/25 00:15:11;;;;;;;13.17;7.03;;;12.40;99.90;;;;;;928889;150;27336;-80
2022/12/25 00:17:38;;;;;;;14.87;5.47;;;12.40;99.90;;;;;;928967;150;27410;-80
2022/12/25 00:20:05;;;;;;;9.25;4.75;;;12.50;99.90;;;;;;929127;150;27275;-80
2022/12/25 00:22:31;;;;;;;12.18;7.35;;;12.50;99.90;;;;;;929167;150;27327;-79
2022/12/25 00:24:58;;;;;;;8.97;6.27;;;12.50;99.90;;;;;;929240;150;27460;-80
2022/12/25 00:27:24;;;;;;;9.27;5.20;;;12.60;99.90;;;;;;934044;150;27429;-80
2022/12/25 00:29:51;;;;;;;10.40;4.58;;;12.60;99.90;;;;;;924789;152;27387;-80
2022/12/25 00:32:17;;;;;;;12.05;6.58;;;12.60;99.90;;;;;;924464;152;27349;-79
2022/12/25 00:34:44;;;;;;;11.20;5.50;;;12.60;99.90;;;;;;925307;152;27457;-80
2022/12/25 00:37:11;;;;;;;11.75;5.17;;;12.60;99.90;;;;;;924881;152;28367;-80
2022/12/25 00:39:37;;;;;;;10.50;5.40;;;12.70;99.90;;;;;;929915;151;27407;-80
2022/12/25 00:42:19;;;;;;;14.03;5.90;;;12.60;99.90;;;;;;929416;151;27391;-80
2022/12/25 00:44:48;;;;;;;11.17;6.83;;;12.60;99.90;;;;;;929602;151;27312;-79
2022/12/25 00:47:14;;;;;;;9.63;5.28;;;12.60;99.90;;;;;;930224;151;28129;-79
2022/12/25 00:49:41;;;;;;;10.40;8.57;;;12.60;99.90;;;;;;929335;151;27305;-79
2022/12/25 00:52:07;;;;;;;11.53;6.10;;;12.60;99.90;;;;;;929355;150;27336;-79
2022/12/25 00:54:34;;;;;;;7.03;5.90;;;12.60;99.90;;;;;;929522;151;27356;-80
2022/12/25 00:57:01;;;;;;;7.67;6.07;;;12.60;99.90;;;;;;929379;151;27383;-79
2022/12/25 00:59:27;;;;;;;9.80;7.25;;;12.50;99.90;;;;;;928748;151;27464;-79
2022/12/25 01:01:54;;;;;;;13.03;7.53;;;12.50;99.90;;;;;;928339;151;27392;-79
2022/12/25 01:04:20;;;;;;;14.80;8.15;;;12.50;99.90;;;;;;928758;151;27415;-79
2022/12/25 01:06:47;;;;;;;9.80;4.90;;;12.50;99.90;;;;;;928428;151;27317;-79
2022/12/25 01:11:58;;;;;;;21.03;14.13;;;12.40;99.90;;;;;;927743;151;27410;-80
2022/12/25 01:14:25;;;;;;;19.53;11.40;;;12.30;99.90;;;;;;930369;151;28952;-79
2022/12/25 01:16:51;;;;;;;10.63;5.83;;;12.30;99.90;;;;;;929129;151;27408;-79
2022/12/25 01:19:18;;;;;;;9.30;4.93;;;12.30;99.90;;;;;;930679;151;27348;-80
2022/12/25 01:21:44;;;;;;;9.80;5.43;;;12.30;99.90;;;;;;929128;151;27380;-79
2022/12/25 01:24:11;;;;;;;8.33;4.73;;;12.20;99.90;;;;;;929504;151;27481;-80
2022/12/25 01:26:38;;;;;;;10.43;5.23;;;12.20;99.90;;;;;;930699;151;27491;-80
2022/12/25 01:29:04;;;;;;;9.70;4.20;;;12.20;99.90;;;;;;931606;151;27285;-80
2022/12/25 01:31:31;;;;;;;6.20;4.33;;;12.10;99.90;;;;;;928444;151;27341;-80
2022/12/25 01:33:57;;;;;;;10.10;4.43;;;12.10;99.90;;;;;;930667;151;27456;-80
2022/12/25 01:36:24;;;;;;;8.23;4.17;;;12.10;99.90;;;;;;928997;151;27394;-79
2022/12/25 01:38:51;;;;;;;11.83;4.43;;;12.10;99.90;;;;;;930606;151;27376;-80
2022/12/25 01:41:17;;;;;;;13.07;5.93;;;12.00;99.90;;;;;;929198;151;27722;-80
2022/12/25 01:43:56;;;;;;;15.90;7.00;;;12.10;99.90;;;;;;929272;151;27319;-80
2022/12/25 01:46:22;;;;;;;11.90;5.03;;;12.00;99.90;;;;;;929002;151;27304;-80
2022/12/25 01:48:49;;;;;;;9.40;5.03;;;12.10;99.90;;;;;;930516;151;27336;-79
2022/12/25 01:51:18;;;;;;;10.73;5.93;;;12.00;99.90;;;;;;929041;151;27468;-80
2022/12/25 01:53:44;;;;;;;9.80;4.73;;;12.10;99.90;;;;;;929313;151;27315;-80
2022/12/25 01:56:11;;;;;;;8.80;3.57;;;12.10;99.90;;;;;;928938;150;27280;-80
2022/12/25 01:58:38;;;;;;;6.80;4.23;;;12.10;99.90;;;;;;929076;151;27421;-80
2022/12/25 02:01:04;;;;;;;7.67;3.80;;;12.20;99.90;;;;;;929001;151;27438;-80
2022/12/25 02:03:31;;;;;;;11.20;4.70;;;12.20;99.90;;;;;;928353;151;27434;-79
2022/12/25 02:05:57;;;;;;;7.33;3.57;;;12.20;99.90;;;;;;929367;151;27336;-80
2022/12/25 02:08:24;;;;;;;8.23;3.50;;;12.20;99.90;;;;;;928540;151;27508;-80
2022/12/25 02:10:51;;;;;;;8.40;3.80;;;12.30;99.90;;;;;;929188;151;27316;-79
2022/12/25 02:13:17;;;;;;;14.37;4.00;;;12.30;99.90;;;;;;927903;151;27524;-80
2022/12/25 02:16:05;;;;;;;8.17;3.73;;;12.30;99.90;;;;;;928246;151;27471;-79
2022/12/25 02:18:40;;;;;;;6.80;3.40;;;12.30;99.90;;;;;;929747;151;27301;-80
2022/12/25 02:21:07;;;;;;;9.07;4.00;;;12.40;99.90;;;;;;929380;151;27432;-79
2022/12/25 02:23:58;;;;;;;8.30;3.80;;;12.40;99.90;;;;;;928282;151;27418;-79
2022/12/25 02:26:25;;;;;;;6.97;3.90;;;12.40;99.90;;;;;;928241;151;27405;-78
2022/12/25 02:29:03;;;;;;;7.70;3.50;;;12.40;99.90;;;;;;928811;151;27465;-79
2022/12/25 02:31:32;;;;;;;12.10;4.33;;;12.40;99.90;;;;;;912746;151;27393;-79
2022/12/25 02:34:04;;;;;;;5.97;3.67;;;12.40;99.90;;;;;;927649;151;27307;-79
2022/12/25 02:36:36;;;;;;;5.83;3.20;;;12.30;99.90;;;;;;927586;151;27441;-79
2022/12/25 02:41:48;;;;;;;7.93;3.63;;;12.30;99.90;;;;;;929850;151;27303;-80
2022/12/25 03:11:47;;;;;;;9.63;5.17;;;11.50;99.90;;;;;;929439;151;28008;-78
2022/12/25 03:16:58;;;;;;;9.90;4.40;;;11.40;99.90;;;;;;929890;151;27315;-80
2022/12/25 03:27:48;;;;;;;6.17;3.60;;;11.40;99.90;;;;;;928737;151;27467;-80
2022/12/25 03:33:11;;;;;;;10.67;4.77;;;11.40;99.90;;;;;;913544;154;27411;-79
2022/12/25 03:35:47;;;;;;;7.00;4.50;;;11.40;99.90;;;;;;909337;154;27377;-79
2022/12/25 04:36:24;;;;;;;7.23;3.13;;;11.40;99.90;;;;;;927139;151;27444;-78
2022/12/25 04:38:51;;;;;;;5.63;2.90;;;11.40;99.90;;;;;;927183;151;27487;-78
2022/12/25 04:41:17;;;;;;;3.67;3.10;;;11.40;99.90;;;;;;926072;151;27391;-78
2022/12/25 04:43:44;;;;;;;5.40;2.97;;;11.40;99.90;;;;;;927389;151;27375;-78
2022/12/25 04:46:10;;;;;;;4.73;2.90;;;11.40;99.90;;;;;;927062;151;27333;-78
2022/12/25 04:48:37;;;;;;;6.53;3.20;;;11.50;99.90;;;;;;927228;151;27844;-78
2022/12/25 04:51:15;;;;;;;5.57;2.83;;;11.50;99.90;;;;;;926556;151;27313;-78
2022/12/25 04:53:42;;;;;;;5.13;2.80;;;11.60;99.90;;;;;;928076;151;27402;-78
2022/12/25 04:56:08;;;;;;;8.13;3.10;;;11.60;99.90;;;;;;927196;151;27500;-78
2022/12/25 04:58:35;;;;;;;8.90;3.10;;;11.60;99.90;;;;;;926670;151;27335;-78
2022/12/25 05:01:02;;;;;;;3.67;2.83;;;11.60;99.90;;;;;;927765;151;27541;-78
2022/12/25 05:03:28;;;;;;;6.17;3.13;;;11.60;99.90;;;;;;927562;151;27348;-78
2022/12/25 05:05:54;;;;;;;3.93;2.60;;;11.70;99.90;;;;;;926858;152;27458;-78
2022/12/25 05:08:21;;;;;;;4.20;2.87;;;11.70;99.90;;;;;;931882;152;27450;-78
2022/12/25 05:10:48;;;;;;;4.90;3.10;;;11.80;99.90;;;;;;943626;149;27471;-78
2022/12/25 05:13:14;;;;;;;6.30;2.97;;;11.80;99.90;;;;;;935116;151;27359;-78
2022/12/25 05:15:41;;;;;;;5.10;3.53;;;11.80;99.90;;;;;;934947;151;27361;-78
2022/12/25 05:18:07;;;;;;;3.20;2.57;;;11.90;99.90;;;;;;933704;151;27382;-78
2022/12/25 05:20:34;;;;;;;5.57;2.97;;;11.90;99.90;;;;;;934603;151;27469;-78
2022/12/25 05:23:01;;;;;;;6.90;3.10;;;11.90;99.90;;;;;;934677;151;27357;-78
2022/12/25 05:25:27;;;;;;;4.60;2.40;;;11.90;99.90;;;;;;935542;151;27334;-78
2022/12/25 05:27:54;;;;;;;4.70;2.87;;;12.00;99.90;;;;;;934118;151;27331;-78
2022/12/25 05:33:00;;;;;;;5.87;2.83;;;12.00;99.90;;;;;;969144;144;35026;-76
2022/12/25 05:35:27;;;;;;;5.83;3.10;;;12.00;99.90;;;;;;957934;147;27244;-78
2022/12/25 05:37:53;;;;;;;5.30;2.80;;;12.10;99.90;;;;;;956877;147;27360;-78
2022/12/25 05:40:20;;;;;;;5.40;2.87;;;12.10;99.90;;;;;;956150;148;27357;-78
2022/12/25 05:42:47;;;;;;;3.67;2.57;;;12.10;99.90;;;;;;957199;148;27336;-78
2022/12/25 05:45:13;;;;;;;6.33;2.80;;;12.20;99.90;;;;;;957556;148;27426;-79
2022/12/25 05:47:40;;;;;;;5.17;2.83;;;12.20;99.90;;;;;;959279;147;27275;-77
2022/12/25 05:50:07;;;;;;;6.97;2.60;;;12.20;99.90;;;;;;956986;148;27382;-77
2022/12/25 05:52:33;;;;;;;5.83;3.00;;;12.30;99.90;;;;;;957480;148;27425;-78
2022/12/25 05:55:00;;;;;;;7.37;2.83;;;12.30;99.90;;;;;;959339;148;27335;-78
2022/12/25 05:57:29;;;;;;;6.67;2.60;;;12.30;99.90;;;;;;958457;147;27391;-77
2022/12/25 05:59:56;;;;;;;5.23;2.53;;;12.30;99.90;;;;;;958379;148;27204;-77
2022/12/25 06:02:23;;;;;;;4.00;2.73;;;12.30;99.90;;;;;;955329;148;27304;-77
2022/12/25 06:04:49;;;;;;;6.70;3.12;;;12.30;99.90;;;;;;958406;147;27346;-77
2022/12/25 06:07:15;;;;;;;6.10;3.00;;;12.40;99.90;;;;;;957831;147;27366;-77
2022/12/25 06:09:42;;;;;;;3.17;2.53;;;12.40;99.90;;;;;;940027;148;27945;-77
2022/12/25 06:12:09;;;;;;;6.53;2.90;;;12.40;99.90;;;;;;931285;150;27270;-78
2022/12/25 06:14:35;;;;;;;3.72;2.70;;;12.40;99.90;;;;;;931315;150;27344;-78
2022/12/25 06:17:02;;;;;;;4.37;2.60;;;12.40;99.90;;;;;;931501;151;27326;-77
2022/12/25 06:19:28;;;;;;;4.60;2.50;;;12.40;99.90;;;;;;930607;150;27387;-77
2022/12/25 06:21:55;;;;;;;3.87;2.50;;;12.50;99.90;;;;;;931168;150;27328;-77
2022/12/25 06:24:22;;;;;;;4.93;2.87;;;12.50;99.90;;;;;;932841;150;27360;-77
2022/12/25 06:26:48;;;;;;;4.10;2.57;;;12.50;99.90;;;;;;931722;150;27405;-78
2022/12/25 06:29:15;;;;;;;4.47;2.60;;;12.50;99.90;;;;;;933496;150;27288;-77
2022/12/25 06:31:41;;;;;;;6.90;3.12;;;12.50;99.90;;;;;;932842;150;27563;-78
2022/12/25 06:34:09;;;;;;;5.65;2.95;;;12.50;99.90;;;;;;931705;150;28543;-77
2022/12/25 06:36:35;;;;;;;5.07;3.33;;;12.50;99.90;;;;;;931805;150;27399;-77
2022/12/25 06:39:01;;;;;;;5.93;2.67;;;12.50;99.90;;;;;;931720;150;27283;-77
2022/12/25 06:41:28;;;;;;;4.60;2.47;;;12.60;99.90;;;;;;931697;150;27832;-78
2022/12/25 06:43:54;;;;;;;5.10;2.67;;;12.50;99.90;;;;;;931742;150;27377;-77
2022/12/25 06:46:21;;;;;;;3.62;2.67;;;12.50;99.90;;;;;;930449;150;27439;-77
2022/12/25 06:48:48;;;;;;;5.53;3.10;;;12.50;99.90;;;;;;931376;150;27288;-78
2022/12/25 06:51:20;;;;;;;3.97;2.70;;;12.50;99.90;;;;;;931841;150;27456;-77
2022/12/25 06:53:47;;;;;;;5.13;3.00;;;12.50;99.90;;;;;;931097;150;27326;-77
2022/12/25 06:56:14;;;;;;;4.12;2.55;;;12.50;99.90;;;;;;932904;151;27379;-77
2022/12/25 06:58:43;;;;;;;7.00;2.83;;;12.50;99.90;;;;;;931237;150;27384;-77
2022/12/25 07:01:13;;;;;;;3.27;2.60;;;12.50;99.90;;;;;;933008;150;28607;-77
2022/12/25 07:03:36;;;;;;;4.00;2.47;;;12.50;99.90;;;;;;933207;149;27444;-77
2022/12/25 07:06:03;;;;;;;4.28;3.60;;;12.50;99.90;;;;;;933822;150;27408;-78
2022/12/25 07:08:29;;;;;;;3.97;2.57;;;12.50;99.90;;;;;;932959;150;27398;-77
2022/12/25 07:10:56;;;;;;;2.92;2.47;;;12.50;99.90;;;;;;931709;150;27385;-77
2022/12/25 07:13:22;;;;;;;2.92;2.30;;;12.50;99.90;;;;;;929420;150;27370;-77
2022/12/25 07:15:49;;;;;;;4.33;2.70;;;12.50;99.90;;;;;;931374;150;27400;-77
2022/12/25 07:18:16;;;;;;;4.53;2.40;;;12.50;99.90;;;;;;930360;150;27431;-77
2022/12/25 07:20:42;;;;;;;2.98;2.47;;;12.50;99.90;;;;;;928720;150;27366;-77
2022/12/25 07:23:09;;;;;;;2.85;2.45;;;12.50;99.90;;;;;;933048;150;27851;-78
2022/12/25 07:25:35;;;;;;;3.43;2.83;;;12.50;99.90;;;;;;932644;150;27438;-77
2022/12/25 07:28:02;;;;;;;7.43;2.70;;;12.50;99.90;;;;;;931516;150;27336;-78
2022/12/25 07:30:28;;;;;;;4.80;2.47;;;12.50;99.90;;;;;;931267;150;27258;-76
2022/12/25 07:32:55;;;;;;;5.05;2.50;;;12.50;99.90;;;;;;928526;150;27376;-78
2022/12/25 07:35:22;;;;;;;3.05;2.17;;;12.50;99.90;;;;;;923618;150;27480;-78
2022/12/25 07:37:48;;;;;;;3.02;2.60;;;12.60;99.90;;;;;;926621;150;27365;-77
2022/12/25 07:40:15;;;;;;;3.62;2.50;;;12.60;99.90;;;;;;926234;150;27300;-77
2022/12/25 07:42:41;;;;;;;4.43;2.70;;;12.60;99.90;;;;;;928591;150;27373;-77
2022/12/25 07:45:08;;;;;;;3.23;2.63;;;12.60;99.90;;;;;;924541;150;27320;-78
2022/12/25 07:47:35;;;;;;;3.63;2.80;;;12.60;99.90;;;;;;924653;150;27322;-78
2022/12/25 07:50:01;;;;;;;3.05;2.47;;;12.60;99.90;;;;;;927530;150;27371;-77
2022/12/25 07:52:28;;;;;;;4.40;2.70;;;12.60;99.90;;;;;;927143;150;27356;-77
2022/12/25 07:54:54;;;;;;;4.10;2.50;;;12.60;99.90;;;;;;924323;150;27338;-77
2022/12/25 07:57:21;;;;;;;4.08;2.42;;;12.70;99.90;;;;;;925819;150;27359;-78
2022/12/25 07:59:48;;;;;;;4.53;2.70;;;12.70;99.90;;;;;;924906;150;27399;-77
2022/12/25 08:02:14;;;;;;;4.33;2.72;;;12.70;99.90;;;;;;925224;150;27414;-77
2022/12/25 08:04:41;;;;;;;2.70;2.50;;;12.70;99.90;;;;;;925093;150;27431;-77
2022/12/25 08:07:07;;;;;;;4.20;2.47;;;12.70;99.90;;;;;;924447;151;27444;-77
2022/12/25 08:09:34;;;;;;;3.58;2.85;;;12.80;99.90;;;;;;924527;151;27405;-77
2022/12/25 08:12:00;;;;;;;3.35;2.80;;;12.80;99.90;;;;;;925475;150;27331;-78
2022/12/25 08:14:27;;;;;;;3.75;2.90;;;12.90;99.90;;;;;;925918;150;27402;-77
2022/12/25 08:16:54;;;;;;;3.90;2.58;;;12.90;99.90;;;;;;924177;150;27342;-77
2022/12/25 08:19:20;;;;;;;2.60;2.22;;;13.00;99.90;;;;;;925986;151;27377;-77
2022/12/25 08:21:47;;;;;;;2.77;2.40;;;13.00;99.90;;;;;;923492;150;27479;-77
2022/12/25 08:24:13;;;;;;;3.20;3.00;;;13.00;99.90;;;;;;926246;150;27417;-77
2022/12/25 08:26:40;;;;;;;3.10;2.80;;;13.00;99.90;;;;;;925886;150;27436;-77
2022/12/25 08:29:07;;;;;;;3.37;3.08;;;13.10;99.90;;;;;;924569;150;27476;-77
2022/12/25 08:31:33;;;;;;;2.63;2.43;;;13.10;99.90;;;;;;926549;151;27413;-77
2022/12/25 08:34:00;;;;;;;3.30;2.80;;;13.10;99.90;;;;;;924588;151;27431;-77
2022/12/25 08:36:26;;;;;;;3.15;2.85;;;13.20;99.90;;;;;;926750;150;27336;-77
2022/12/25 08:38:53;;;;;;;5.47;2.70;;;13.20;99.90;;;;;;927209;150;27371;-78
2022/12/25 08:41:20;;;;;;;4.67;3.05;;;13.20;99.90;;;;;;927006;150;27488;-77
2022/12/25 08:43:46;;;;;;;2.62;2.42;;;13.30;99.90;;;;;;925743;150;27320;-77
2022/12/25 08:46:13;;;;;;;4.85;2.90;;;13.30;99.90;;;;;;927346;150;27427;-77
2022/12/25 08:48:42;;;;;;;2.92;2.62;;;13.40;99.90;;;;;;925489;150;27480;-77
2022/12/25 08:51:15;;;;;;;2.87;2.55;;;13.40;99.90;;;;;;926964;150;27482;-77
2022/12/25 08:53:38;;;;;;;3.25;2.80;;;13.50;99.90;;;;;;925433;150;27366;-77
2022/12/25 08:56:05;;;;;;;4.28;2.75;;;13.50;99.90;;;;;;924424;150;27276;-77
2022/12/25 08:58:31;;;;;;;3.87;2.58;;;13.60;99.90;;;;;;925851;150;27327;-77
2022/12/25 09:00:58;;;;;;;6.70;3.17;;;13.60;99.90;;;;;;927579;150;27384;-77
2022/12/25 09:03:25;;;;;;;5.85;2.67;;;13.60;99.90;;;;;;925829;150;27497;-78
2022/12/25 09:05:51;;;;;;;3.70;2.62;;;13.60;99.90;;;;;;926078;150;28158;-77
2022/12/25 09:08:18;;;;;;;3.55;2.50;;;13.50;99.90;;;;;;926031;151;27567;-77
2022/12/25 09:10:44;;;;;;;3.47;2.67;;;13.50;99.90;;;;;;926635;150;27324;-78
2022/12/25 09:13:11;;;;;;;4.28;2.92;;;13.40;99.90;;;;;;926640;150;27311;-77
2022/12/25 09:15:38;;;;;;;4.58;3.60;;;13.40;99.90;;;;;;927077;150;27344;-78
2022/12/25 09:18:04;;;;;;;3.00;2.60;;;13.40;99.90;;;;;;927183;150;27384;-77
2022/12/25 09:20:31;;;;;;;4.00;2.75;;;13.40;99.90;;;;;;927007;150;27727;-77
2022/12/25 09:22:57;;;;;;;3.22;2.50;;;13.40;99.90;;;;;;924745;150;27384;-77
2022/12/25 09:25:24;;;;;;;3.30;2.67;;;13.50;99.90;;;;;;924545;150;27355;-77
2022/12/25 09:27:51;;;;;;;2.33;2.12;;;13.50;99.90;;;;;;926844;150;27434;-77
2022/12/25 09:30:17;;;;;;;3.22;2.50;;;13.60;99.90;;;;;;925451;150;27354;-77
2022/12/25 09:32:44;;;;;;;3.60;2.50;;;13.60;99.90;;;;;;925482;150;27877;-77
2022/12/25 09:35:12;;;;;;;3.93;3.23;;;13.60;99.90;;;;;;928328;150;27401;-77
2022/12/25 09:37:37;;;;;;;3.08;2.77;;;13.60;99.90;;;;;;930493;150;27351;-77
2022/12/25 09:40:03;;;;;;;3.58;2.90;;;13.70;99.90;;;;;;932586;150;27310;-77
2022/12/25 09:42:36;;;;;;;3.12;2.30;;;13.70;99.90;;;;;;930804;150;27807;-78
2022/12/25 09:45:05;;;;;;;5.22;3.22;;;13.70;99.90;;;;;;933384;149;27506;-77
2022/12/25 09:47:32;;;;;;;4.03;2.95;;;13.70;99.90;;;;;;930861;150;27304;-77
2022/12/25 09:50:10;;;;;;;4.22;2.90;;;13.70;99.90;;;;;;930348;150;27432;-75
2022/12/25 09:52:43;;;;;;;4.05;3.42;;;13.70;99.90;;;;;;931416;150;27346;-77
2022/12/25 09:55:12;;;;;;;5.03;3.10;;;13.70;99.90;;;;;;932451;150;27488;-78
2022/12/25 09:57:39;;;;;;;3.47;2.50;;;13.70;99.90;;;;;;930011;150;27344;-77
2022/12/25 10:00:08;;;;;;;3.95;3.05;;;13.70;99.90;;;;;;932487;149;27469;-77
2022/12/25 10:02:40;;;;;;;3.02;2.77;;;13.70;99.90;;;;;;931888;150;27433;-76
2022/12/25 10:05:25;;;;;;;3.15;2.10;;;13.70;99.90;;;;;;930727;150;27492;-78
2022/12/25 10:07:52;;;;;;;2.37;2.17;;;13.70;99.90;;;;;;929374;150;27447;-76
2022/12/25 10:10:21;;;;;;;2.20;2.00;;;13.70;99.90;;;;;;929223;150;27375;-76
2022/12/25 10:12:51;;;;;;;2.40;1.90;;;13.70;99.90;;;;;;922383;152;27501;-77
2022/12/25 10:15:32;;;;;;;2.17;1.98;;;13.70;99.90;;;;;;936207;149;27334;-77
2022/12/25 10:18:17;;;;;;;2.30;2.10;;;13.70;99.90;;;;;;934957;149;27390;-77
2022/12/25 10:20:58;;;;;;;3.10;2.40;;;13.70;99.90;;;;;;922415;151;27377;-76
2022/12/25 10:23:25;;;;;;;2.25;2.00;;;13.70;99.90;;;;;;919134;151;27393;-77
2022/12/25 10:25:52;;;;;;;3.17;1.92;;;13.70;99.90;;;;;;933533;150;27294;-77
2022/12/25 10:28:18;;;;;;;3.52;2.00;;;13.70;99.90;;;;;;916861;151;27361;-77
2022/12/25 10:30:45;;;;;;;2.00;1.75;;;13.70;99.90;;;;;;937832;149;27445;-77
2022/12/25 10:33:11;;;;;;;2.93;2.43;;;13.80;99.90;;;;;;937783;149;27386;-77
2022/12/25 10:35:38;;;;;;;2.75;2.45;;;13.80;99.90;;;;;;924289;150;27544;-78
2022/12/25 10:38:13;;;;;;;3.00;2.52;;;13.90;99.90;;;;;;913894;151;27464;-76
2022/12/25 10:40:55;;;;;;;3.98;2.15;;;13.90;99.90;;;;;;915390;152;27340;-77
2022/12/25 10:43:24;;;;;;;3.60;3.12;;;14.00;99.90;;;;;;915706;151;27395;-78
2022/12/25 10:45:51;;;;;;;2.83;2.60;;;14.00;99.90;;;;;;913456;151;27467;-76
2022/12/25 10:48:20;;;;;;;3.95;2.50;;;14.10;99.90;;;;;;913067;151;27394;-77
2022/12/25 10:50:47;;;;;;;2.62;2.40;;;14.20;99.90;;;;;;916813;151;28384;-77
2022/12/25 10:53:16;;;;;;;2.30;2.10;;;14.30;99.90;;;;;;916057;151;27417;-77
2022/12/25 10:55:42;;;;;;;3.67;3.10;;;14.40;99.90;;;;;;914998;151;27444;-77
2022/12/25 10:58:09;;;;;;;3.47;2.40;;;14.50;99.90;;;;;;916057;151;27403;-77
2022/12/25 11:00:36;;;;;;;2.98;2.20;;;14.60;99.90;;;;;;912814;151;27826;-77
2022/12/25 11:03:03;;;;;;;3.10;2.27;;;14.70;99.90;;;;;;913919;151;27271;-77
2022/12/25 11:05:32;;;;;;;3.30;2.42;;;14.70;99.90;;;;;;915294;151;27473;-78
2022/12/25 11:07:59;;;;;;;3.12;2.37;;;14.80;99.90;;;;;;915471;151;27409;-76
2022/12/25 11:10:31;;;;;;;2.20;2.00;;;14.90;99.90;;;;;;914209;151;27329;-77
2022/12/25 11:12:57;;;;;;;2.70;2.35;;;15.00;99.90;;;;;;918205;151;27411;-77
2022/12/25 11:15:36;;;;;;;2.85;2.55;;;15.00;99.90;;;;;;915376;151;27349;-77
2022/12/25 11:18:03;;;;;;;3.40;2.40;;;15.10;99.90;;;;;;915157;151;27544;-78
2022/12/25 11:20:29;;;;;;;2.90;2.20;;;15.20;99.90;;;;;;915177;151;27413;-77
2022/12/25 11:22:56;;;;;;;2.85;2.62;;;15.20;99.90;;;;;;917944;151;27358;-78
2022/12/25 11:25:22;;;;;;;2.75;2.27;;;15.30;99.90;;;;;;914519;151;27339;-77
2022/12/25 11:28:01;;;;;;;3.42;2.77;;;15.40;99.90;;;;;;913573;151;27374;-77
2022/12/25 11:30:27;;;;;;;2.77;2.58;;;15.50;99.90;;;;;;916425;151;27346;-77
2022/12/25 11:32:55;;;;;;;2.58;2.37;;;15.60;99.90;;;;;;913919;151;27384;-78
2022/12/25 11:35:21;;;;;;;3.40;2.10;;;15.60;99.90;;;;;;913619;152;27536;-78
2022/12/25 11:37:47;;;;;;;2.60;2.00;;;15.60;99.90;;;;;;918159;152;27368;-77
2022/12/25 11:40:22;;;;;;;1.92;1.75;;;15.60;99.60;;;;;;918177;152;27467;-77
2022/12/25 11:42:52;;;;;;;2.40;1.82;;;15.60;99.30;;;;;;916938;152;27388;-76
2022/12/25 11:45:27;;;;;;;1.82;1.70;;;15.50;99.10;;;;;;917206;152;27388;-76
2022/12/25 11:47:57;;;;;;;2.65;1.60;;;15.50;98.80;;;;;;916764;153;27436;-77
2022/12/25 11:50:41;;;;;;;1.80;1.70;;;15.50;98.60;;;;;;916225;153;27813;-76
2022/12/25 11:53:17;;;;;;;1.95;1.42;;;15.40;98.60;;;;;;916421;153;27332;-77
2022/12/25 11:55:45;;;;;;;1.80;1.70;;;15.30;98.40;;;;;;917022;153;27401;-76
2022/12/25 11:58:15;;;;;;;2.37;1.72;;;15.30;98.70;;;;;;915384;153;27405;-76
2022/12/25 12:00:42;;;;;;;2.40;1.90;;;15.20;98.70;;;;;;916718;153;27733;-78
2022/12/25 12:03:11;;;;;;;1.70;1.60;;;15.20;98.80;;;;;;931655;150;27882;-76
2022/12/25 12:05:44;;;;;;;3.22;1.87;;;15.20;99.20;;;;;;917133;153;27505;-76
2022/12/25 12:08:12;;;;;;;2.10;1.90;;;15.20;99.40;;;;;;916349;153;27390;-77
2022/12/25 12:10:56;;;;;;;1.52;1.42;;;15.20;99.70;;;;;;916388;153;27410;-77
2022/12/25 12:13:37;;;;;;;1.67;1.57;;;15.20;99.70;;;;;;918332;152;27453;-77
2022/12/25 12:16:04;;;;;;;2.75;1.82;;;15.20;99.60;;;;;;910465;152;27348;-77
2022/12/25 12:18:31;;;;;;;2.42;1.70;;;15.30;99.70;;;;;;915394;153;27330;-78
2022/12/25 12:20:57;;;;;;;1.62;1.50;;;15.30;99.50;;;;;;916869;153;27472;-78
2022/12/25 12:23:24;;;;;;;1.52;1.42;;;15.30;99.50;;;;;;915610;155;27445;-78
2022/12/25 12:25:50;;;;;;;3.10;1.77;;;15.30;99.40;;;;;;916798;153;27425;-78
2022/12/25 12:28:19;;;;;;;2.12;1.60;;;15.30;99.20;;;;;;919020;153;27353;-78
2022/12/25 12:30:46;;;;;;;2.72;1.80;;;15.30;99.10;;;;;;917823;153;27421;-78
2022/12/25 12:33:13;;;;;;;1.90;1.70;;;15.30;98.90;;;;;;916508;153;27434;-77
2022/12/25 12:35:39;;;;;;;1.80;1.70;;;15.30;98.80;;;;;;916879;151;27409;-77
2022/12/25 12:38:06;;;;;;;1.27;1.20;;;15.30;98.80;;;;;;915393;151;27476;-79
2022/12/25 12:40:32;;;;;;;1.47;1.37;;;15.30;98.90;;;;;;914532;151;27382;-79
2022/12/25 12:42:59;;;;;;;2.50;1.65;;;15.30;98.90;;;;;;915032;152;28068;-78
2022/12/25 12:45:26;;;;;;;1.52;1.42;;;15.30;99.10;;;;;;918668;151;27373;-78
2022/12/25 12:47:52;;;;;;;1.50;1.40;;;15.30;99.10;;;;;;917018;151;27894;-78
2022/12/25 12:50:34;;;;;;;1.40;1.30;;;15.40;99.20;;;;;;915587;152;27348;-78
2022/12/25 12:53:04;;;;;;;1.60;1.50;;;15.40;99.30;;;;;;918125;151;27341;-78
2022/12/25 12:55:30;;;;;;;1.60;1.50;;;15.40;99.40;;;;;;913603;152;27471;-79
2022/12/25 12:58:02;;;;;;;1.55;1.45;;;15.50;99.40;;;;;;918435;151;27412;-79
2022/12/25 13:00:29;;;;;;;2.42;1.32;;;15.50;99.30;;;;;;916285;151;27370;-78
2022/12/25 13:03:19;;;;;;;1.55;1.45;;;15.50;99.50;;;;;;914737;151;27404;-78
2022/12/25 13:05:55;;;;;;;1.82;1.50;;;15.60;99.60;;;;;;914805;151;27350;-78
2022/12/25 13:08:40;;;;;;;1.50;1.40;;;15.60;99.70;;;;;;914851;151;27435;-78
2022/12/25 13:11:19;;;;;;;1.37;1.30;;;15.70;99.70;;;;;;915072;151;27474;-78
2022/12/25 13:13:45;;;;;;;2.62;1.95;;;15.80;99.80;;;;;;916082;151;27413;-79
2022/12/25 13:16:14;;;;;;;2.37;1.70;;;15.80;99.70;;;;;;917213;151;27397;-78
2022/12/25 13:18:41;;;;;;;1.92;1.70;;;15.90;99.60;;;;;;912052;151;27349;-77
2022/12/25 13:21:08;;;;;;;3.27;1.67;;;15.90;99.30;;;;;;917111;151;27362;-78
2022/12/25 13:23:34;;;;;;;1.62;1.40;;;16.00;99.20;;;;;;915936;151;28187;-77
2022/12/25 13:26:01;;;;;;;2.92;1.50;;;16.10;98.90;;;;;;916878;152;27376;-77
2022/12/25 13:28:30;;;;;;;1.67;1.45;;;16.10;98.70;;;;;;914104;151;27405;-77
2022/12/25 13:31:06;;;;;;;1.77;1.67;;;16.10;98.40;;;;;;915383;152;27464;-77
2022/12/25 13:33:32;;;;;;;2.10;1.98;;;16.20;97.90;;;;;;914736;152;27484;-77
2022/12/25 13:35:59;;;;;;;1.82;1.70;;;16.20;98.10;;;;;;916257;152;27364;-78
2022/12/25 13:38:26;;;;;;;1.92;1.80;;;16.20;97.90;;;;;;915104;152;27508;-78
2022/12/25 13:43:40;;;;;;;1.52;1.42;;;16.20;97.50;;;;;;917402;152;27503;-78
2022/12/25 13:46:07;;;;;;;1.77;1.67;;;16.20;97.40;;;;;;917075;152;27307;-78
2022/12/25 13:48:33;;;;;;;1.95;1.37;;;16.20;97.30;;;;;;915682;152;27429;-78
2022/12/25 13:51:00;;;;;;;2.10;2.00;;;16.10;97.20;;;;;;917029;151;27373;-78
2022/12/25 13:53:26;;;;;;;3.83;2.30;;;16.10;97.20;;;;;;917499;151;27386;-78
2022/12/25 13:55:56;;;;;;;1.60;1.45;;;16.10;97.10;;;;;;915041;152;27282;-78
2022/12/25 13:58:28;;;;;;;1.95;1.80;;;16.10;97.10;;;;;;915553;151;27508;-78
2022/12/25 14:00:55;;;;;;;1.60;1.50;;;16.00;97.00;;;;;;915951;151;27400;-78
2022/12/25 14:03:37;;;;;;;3.37;2.47;;;16.00;97.00;;;;;;916557;152;27388;-78
2022/12/25 14:06:06;;;;;;;1.87;1.67;;;16.00;97.00;;;;;;917092;152;28017;-78
2022/12/25 14:08:33;;;;;;;1.55;1.45;;;15.90;96.90;;;;;;915715;152;27418;-77
2022/12/25 14:11:05;;;;;;;2.35;1.90;;;15.90;96.90;;;;;;915062;152;27312;-78
2022/12/25 14:13:31;;;;;;;1.60;1.50;;;15.80;97.00;;;;;;915782;152;27427;-78
2022/12/25 14:15:58;;;;;;;2.10;2.00;;;15.80;97.00;;;;;;915470;152;27742;-79
2022/12/25 14:18:25;;;;;;;2.47;1.70;;;15.70;97.00;;;;;;903007;153;27481;-78
2022/12/25 14:21:03;;;;;;;2.15;2.00;;;15.70;97.10;;;;;;918258;151;27727;-77
2022/12/25 14:23:30;;;;;;;1.47;1.35;;;15.60;97.20;;;;;;913698;152;27457;-78
2022/12/25 14:25:56;;;;;;;2.27;1.90;;;15.60;97.20;;;;;;915133;152;27369;-78
2022/12/25 14:28:30;;;;;;;1.95;1.85;;;15.60;97.20;;;;;;916517;152;27480;-78
2022/12/25 14:30:53;;;;;;;2.85;1.92;;;15.50;97.20;;;;;;916705;151;27510;-78
2022/12/25 14:33:19;;;;;;;2.02;1.87;;;15.50;97.30;;;;;;913483;151;27361;-77
2022/12/25 14:35:46;;;;;;;2.77;2.37;;;15.40;97.30;;;;;;916617;151;27387;-77
2022/12/25 14:38:15;;;;;;;3.55;2.10;;;15.40;97.50;;;;;;911664;152;27429;-78
2022/12/25 14:40:44;;;;;;;1.98;1.87;;;15.40;97.60;;;;;;909046;154;27403;-77